JR3QFB-13 Weather Reports


time (UTC)temp
C
wind
direction
speed
KPH
gust
KPH
rain 1hr
cm
rain 24hr
cm
rain mn
cm
humidity
%
barometer
mb
20240616062105 30 326 6.4 6.4 0.00 0.00 6.17 57 1002.3
20240616060602 30 337 4.8 11.3 0.00 0.00 6.15 58 1002.5
20240616055100 30 310 4.8 14.5 0.00 0.00 6.10 58 1002.2
20240616043547 30 255 3.2 6.4 0.00 0.00 6.02 58 1002.4
20240616015020 28 326 0.0 6.4 0.00 0.00 5.77 63 1004.1
20240616010512 28 321 1.6 8.0 0.00 0.00 5.74 62 1003.6
20240616005010 28 315 0.0 3.2 0.00 0.00 5.74 63 1003.7
20240616003507 28 317 0.0 3.2 0.00 0.00 5.74 62 1003.8
20240616002004 28 317 3.2 3.2 0.00 0.00 5.74 62 1003.7
20240616000502 28 321 0.0 6.4 0.00 0.00 5.71 62 1003.8
20240615235000 28 200 1.6 1.6 0.00 0.00 5.69 62 1004.1
20240615233457 28 315 0.0 3.2 0.00 0.00 5.69 62 1003.9
20240615231954 28 180 0.0 0.0 0.00 0.00 5.69 62 1003.9
20240615230452 28 96 3.2 3.2 0.00 0.00 5.69 62 1003.7
20240615224950 28 140 1.6 1.6 0.00 0.00 5.66 61 1003.5
20240615223447 28 177 1.6 3.2 0.00 0.00 5.64 61 1003.4
20240615221944 28 135 1.6 1.6 0.00 0.00 5.64 61 1003.2
20240615220442 28 209 3.2 6.4 0.00 0.00 5.61 61 1003.1
20240615214940 28 180 1.6 4.8 0.00 0.00 5.59 61 1003.1
20240615213437 27 135 0.0 1.6 0.00 0.00 5.54 61 1003.1
20240615211934 27 144 1.6 4.8 0.00 0.00 5.51 61 1003.0
20240615210432 27 180 1.6 4.8 0.00 0.00 5.49 61 1002.8
20240615204930 27 180 0.0 6.4 0.00 0.00 5.46 61 1002.8
20240615203427 27 315 0.0 3.2 0.00 0.00 5.46 62 1003.0
20240615201924 27 204 3.2 3.2 0.00 0.00 5.44 61 1002.9
20240615200422 27 211 1.6 1.6 0.00 0.00 5.44 61 1002.8
20240615194920 27 180 0.0 3.2 0.00 0.00 5.44 61 1002.6
20240615193417 27 180 0.0 3.2 0.00 0.00 5.44 61 1002.4
20240615191914 27 184 0.0 3.2 0.00 0.00 5.41 61 1002.5
20240615190412 28 168 1.6 3.2 0.00 0.00 5.38 61 1002.6
20240615184910 28 141 0.0 4.8 0.00 0.00 5.36 61 1002.6
20240615183407 28 135 0.0 3.2 0.00 0.00 5.36 61 1002.5
20240615181904 28 162 3.2 3.2 0.00 0.00 5.33 61 1002.1
20240615180402 28 162 0.0 3.2 0.00 0.00 5.33 61 1002.1
20240615174900 28 176 4.8 9.7 0.00 0.00 5.31 61 1001.7
20240615173357 28 180 1.6 6.4 0.00 0.00 5.26 61 1002.3
20240615171854 28 191 3.2 6.4 0.00 0.00 5.23 61 1002.2
20240615170352 28 177 1.6 4.8 0.00 0.00 5.21 61 1002.2
20240615164850 28 182 1.6 6.4 0.00 0.00 5.18 61 1002.3
20240615163347 28 180 0.0 4.8 0.00 0.00 5.18 61 1002.4
20240615161844 28 135 1.6 4.8 0.00 0.00 5.13 61 1002.3
20240615160342 28 144 4.8 8.0 0.00 0.00 5.11 61 1002.3
20240615154840 28 180 1.6 6.4 0.00 0.00 5.08 62 1002.4
20240615153337 28 168 6.4 8.0 0.00 0.00 5.05 61 1002.6
20240615151834 28 144 3.2 6.4 0.00 0.00 5.03 61 1002.6
20240615150332 28 180 1.6 9.7 0.00 0.00 4.98 61 1002.9
20240615144830 28 180 1.6 12.9 0.00 0.00 4.95 62 1002.9
20240615143327 28 182 1.6 6.4 0.00 0.00 4.95 62 1002.8
20240615141824 28 182 4.8 11.3 0.00 0.00 4.93 62 1002.9
20240615140322 28 202 6.4 11.3 0.00 0.00 4.90 61 1002.9
20240615134820 28 184 4.8 9.7 0.00 0.00 4.88 62 1002.9
20240615133317 28 171 4.8 8.0 0.00 0.00 4.85 63 1003.0
20240615131814 28 239 3.2 6.4 0.00 0.00 4.83 63 1002.8
20240615130312 28 171 4.8 8.0 0.00 0.00 4.80 63 1003.0
20240615123307 28 180 1.6 8.0 0.00 0.00 4.75 63 1003.3
20240615121804 28 155 4.8 11.3 0.00 0.00 4.70 63 1003.2
20240615120302 28 177 8.0 11.3 0.00 0.00 4.67 63 1003.1
20240615114800 28 182 3.2 8.0 0.00 0.00 4.62 63 1003.0
20240615113257 28 168 4.8 8.0 0.00 0.00 4.60 62 1003.0
20240615111754 28 180 6.4 6.4 0.00 0.00 4.52 61 1002.9
20240615110252 28 184 3.2 6.4 0.00 0.00 4.47 60 1002.8
20240615104750 29 176 11.3 11.3 0.00 0.00 4.39 58 1002.7
20240615101744 29 189 3.2 12.9 0.00 0.00 4.34 55 1002.9
20240615090231 30 191 4.8 9.7 0.00 0.00 4.22 49 1002.6
20240615084729 30 180 8.0 11.3 0.00 0.00 4.19 49 1002.4
20240615083226 30 183 4.8 9.7 0.00 0.00 4.14 48 1002.3
20240615081724 30 195 4.8 8.0 0.00 0.00 4.11 47 1002.1
20240615074720 30 232 1.6 11.3 0.00 0.00 4.06 46 1001.9
20240615073216 30 180 3.2 9.7 0.00 0.00 4.04 46 1001.7
20240615071714 30 185 3.2 8.0 0.00 0.00 4.01 46 1001.7
20240615064710 30 175 3.2 8.0 0.00 0.00 3.96 45 1002.1